sensor_id;sensor_type;location;lat;lon;timestamp;P1;durP1;ratioP1;P2;durP2;ratioP2
16426;SDS011;8322;-33.900;151.170;2023-03-19T00:01:13;11.73;;;8.35;;
16426;SDS011;8322;-33.900;151.170;2023-03-19T00:03:45;12.77;;;8.18;;
16426;SDS011;8322;-33.900;151.170;2023-03-19T00:06:14;12.02;;;8.30;;
16426;SDS011;8322;-33.900;151.170;2023-03-19T00:08:43;14.70;;;8.60;;
16426;SDS011;8322;-33.900;151.170;2023-03-19T00:11:13;11.38;;;9.00;;
16426;SDS011;8322;-33.900;151.170;2023-03-19T00:13:42;13.60;;;8.98;;
16426;SDS011;8322;-33.900;151.170;2023-03-19T00:16:12;13.05;;;8.70;;
16426;SDS011;8322;-33.900;151.170;2023-03-19T00:18:41;14.18;;;7.57;;
16426;SDS011;8322;-33.900;151.170;2023-03-19T00:21:12;9.13;;;7.18;;
16426;SDS011;8322;-33.900;151.170;2023-03-19T00:23:42;11.85;;;7.90;;
16426;SDS011;8322;-33.900;151.170;2023-03-19T00:26:11;12.00;;;9.60;;
16426;SDS011;8322;-33.900;151.170;2023-03-19T00:28:41;9.57;;;7.03;;
16426;SDS011;8322;-33.900;151.170;2023-03-19T00:31:11;11.20;;;7.68;;
16426;SDS011;8322;-33.900;151.170;2023-03-19T00:33:40;12.20;;;7.78;;
16426;SDS011;8322;-33.900;151.170;2023-03-19T00:36:10;9.23;;;7.93;;
16426;SDS011;8322;-33.900;151.170;2023-03-19T00:38:43;12.32;;;8.07;;
16426;SDS011;8322;-33.900;151.170;2023-03-19T00:41:12;10.73;;;7.55;;
16426;SDS011;8322;-33.900;151.170;2023-03-19T00:43:43;9.38;;;7.97;;
16426;SDS011;8322;-33.900;151.170;2023-03-19T00:46:12;11.15;;;8.85;;
16426;SDS011;8322;-33.900;151.170;2023-03-19T00:48:42;10.38;;;7.32;;
16426;SDS011;8322;-33.900;151.170;2023-03-19T00:51:13;7.85;;;6.63;;
16426;SDS011;8322;-33.900;151.170;2023-03-19T00:53:45;10.57;;;7.20;;
16426;SDS011;8322;-33.900;151.170;2023-03-19T00:56:14;11.55;;;9.40;;
16426;SDS011;8322;-33.900;151.170;2023-03-19T00:58:44;10.93;;;7.00;;
16426;SDS011;8322;-33.900;151.170;2023-03-19T01:01:15;9.90;;;7.38;;
16426;SDS011;8322;-33.900;151.170;2023-03-19T01:03:45;10.00;;;7.38;;
16426;SDS011;8322;-33.900;151.170;2023-03-19T01:06:15;9.45;;;7.15;;
16426;SDS011;8322;-33.900;151.170;2023-03-19T01:08:46;11.57;;;8.65;;
16426;SDS011;8322;-33.900;151.170;2023-03-19T01:11:15;11.50;;;7.00;;
16426;SDS011;8322;-33.900;151.170;2023-03-19T01:13:45;9.20;;;6.40;;
16426;SDS011;8322;-33.900;151.170;2023-03-19T01:16:14;7.80;;;6.22;;
16426;SDS011;8322;-33.900;151.170;2023-03-19T01:18:43;7.75;;;6.05;;
16426;SDS011;8322;-33.900;151.170;2023-03-19T01:21:13;9.05;;;6.38;;
16426;SDS011;8322;-33.900;151.170;2023-03-19T01:23:43;7.30;;;5.70;;
16426;SDS011;8322;-33.900;151.170;2023-03-19T01:26:14;8.15;;;6.60;;
16426;SDS011;8322;-33.900;151.170;2023-03-19T01:28:44;7.95;;;6.75;;
16426;SDS011;8322;-33.900;151.170;2023-03-19T01:31:13;10.32;;;7.03;;
16426;SDS011;8322;-33.900;151.170;2023-03-19T01:33:43;7.35;;;6.00;;
16426;SDS011;8322;-33.900;151.170;2023-03-19T01:36:13;9.75;;;5.68;;
16426;SDS011;8322;-33.900;151.170;2023-03-19T01:38:42;6.40;;;5.53;;
16426;SDS011;8322;-33.900;151.170;2023-03-19T01:41:11;7.75;;;5.93;;
16426;SDS011;8322;-33.900;151.170;2023-03-19T01:43:43;7.47;;;6.22;;
16426;SDS011;8322;-33.900;151.170;2023-03-19T01:46:13;7.97;;;5.80;;
16426;SDS011;8322;-33.900;151.170;2023-03-19T01:48:45;7.25;;;5.18;;
16426;SDS011;8322;-33.900;151.170;2023-03-19T01:51:16;8.65;;;4.40;;
16426;SDS011;8322;-33.900;151.170;2023-03-19T01:53:46;7.68;;;4.95;;
16426;SDS011;8322;-33.900;151.170;2023-03-19T01:56:19;7.13;;;5.63;;
16426;SDS011;8322;-33.900;151.170;2023-03-19T01:58:51;7.85;;;6.05;;
16426;SDS011;8322;-33.900;151.170;2023-03-19T02:01:21;8.00;;;4.55;;
16426;SDS011;8322;-33.900;151.170;2023-03-19T02:03:51;6.22;;;4.43;;
16426;SDS011;8322;-33.900;151.170;2023-03-19T02:06:20;8.50;;;5.90;;
16426;SDS011;8322;-33.900;151.170;2023-03-19T02:08:50;8.20;;;4.65;;
16426;SDS011;8322;-33.900;151.170;2023-03-19T02:11:20;6.53;;;5.13;;
16426;SDS011;8322;-33.900;151.170;2023-03-19T02:13:51;7.57;;;5.18;;
16426;SDS011;8322;-33.900;151.170;2023-03-19T02:16:23;6.13;;;4.82;;
16426;SDS011;8322;-33.900;151.170;2023-03-19T02:18:53;6.93;;;4.72;;
16426;SDS011;8322;-33.900;151.170;2023-03-19T02:21:23;8.60;;;5.40;;
16426;SDS011;8322;-33.900;151.170;2023-03-19T02:23:52;7.13;;;4.72;;
16426;SDS011;8322;-33.900;151.170;2023-03-19T02:26:25;5.85;;;4.53;;
16426;SDS011;8322;-33.900;151.170;2023-03-19T02:28:55;5.43;;;4.30;;
16426;SDS011;8322;-33.900;151.170;2023-03-19T02:31:25;8.57;;;4.88;;
16426;SDS011;8322;-33.900;151.170;2023-03-19T02:33:58;7.20;;;4.30;;
16426;SDS011;8322;-33.900;151.170;2023-03-19T02:36:28;7.78;;;4.97;;
16426;SDS011;8322;-33.900;151.170;2023-03-19T02:38:59;6.63;;;4.70;;
16426;SDS011;8322;-33.900;151.170;2023-03-19T02:41:30;9.45;;;5.93;;
16426;SDS011;8322;-33.900;151.170;2023-03-19T02:44:01;7.38;;;5.22;;
16426;SDS011;8322;-33.900;151.170;2023-03-19T02:46:31;9.75;;;6.45;;
16426;SDS011;8322;-33.900;151.170;2023-03-19T02:49:01;11.02;;;5.35;;
16426;SDS011;8322;-33.900;151.170;2023-03-19T02:51:30;8.98;;;5.72;;
16426;SDS011;8322;-33.900;151.170;2023-03-19T02:54:00;7.38;;;5.13;;
16426;SDS011;8322;-33.900;151.170;2023-03-19T02:56:31;7.57;;;5.50;;
16426;SDS011;8322;-33.900;151.170;2023-03-19T02:59:00;9.90;;;5.63;;
16426;SDS011;8322;-33.900;151.170;2023-03-19T03:01:30;12.65;;;6.25;;
16426;SDS011;8322;-33.900;151.170;2023-03-19T03:03:59;12.65;;;6.70;;
16426;SDS011;8322;-33.900;151.170;2023-03-19T03:06:30;8.82;;;6.75;;
16426;SDS011;8322;-33.900;151.170;2023-03-19T03:08:59;9.93;;;6.47;;
16426;SDS011;8322;-33.900;151.170;2023-03-19T03:11:30;13.13;;;7.10;;
16426;SDS011;8322;-33.900;151.170;2023-03-19T03:14:00;9.52;;;7.18;;
16426;SDS011;8322;-33.900;151.170;2023-03-19T03:16:29;7.68;;;6.07;;
16426;SDS011;8322;-33.900;151.170;2023-03-19T03:18:59;9.68;;;5.93;;
16426;SDS011;8322;-33.900;151.170;2023-03-19T03:21:29;11.90;;;6.47;;
16426;SDS011;8322;-33.900;151.170;2023-03-19T03:23:59;11.90;;;7.57;;
16426;SDS011;8322;-33.900;151.170;2023-03-19T03:26:28;13.10;;;8.18;;
16426;SDS011;8322;-33.900;151.170;2023-03-19T03:29:01;10.20;;;8.10;;
16426;SDS011;8322;-33.900;151.170;2023-03-19T03:31:30;10.75;;;8.38;;
16426;SDS011;8322;-33.900;151.170;2023-03-19T03:34:00;11.93;;;8.48;;
16426;SDS011;8322;-33.900;151.170;2023-03-19T03:36:29;12.98;;;9.27;;
16426;SDS011;8322;-33.900;151.170;2023-03-19T03:38:59;12.23;;;8.80;;
16426;SDS011;8322;-33.900;151.170;2023-03-19T03:41:29;12.85;;;8.90;;
16426;SDS011;8322;-33.900;151.170;2023-03-19T03:43:58;10.98;;;8.15;;
16426;SDS011;8322;-33.900;151.170;2023-03-19T03:46:29;10.43;;;7.45;;
16426;SDS011;8322;-33.900;151.170;2023-03-19T03:48:59;12.00;;;7.78;;
16426;SDS011;8322;-33.900;151.170;2023-03-19T03:51:30;13.25;;;9.25;;
16426;SDS011;8322;-33.900;151.170;2023-03-19T03:54:00;11.00;;;8.77;;
16426;SDS011;8322;-33.900;151.170;2023-03-19T03:56:29;10.27;;;7.28;;
16426;SDS011;8322;-33.900;151.170;2023-03-19T03:58:59;7.43;;;6.50;;
16426;SDS011;8322;-33.900;151.170;2023-03-19T04:01:30;8.77;;;5.90;;
16426;SDS011;8322;-33.900;151.170;2023-03-19T04:03:59;8.18;;;6.20;;
16426;SDS011;8322;-33.900;151.170;2023-03-19T04:06:29;7.60;;;5.95;;
16426;SDS011;8322;-33.900;151.170;2023-03-19T04:08:59;9.38;;;6.20;;
16426;SDS011;8322;-33.900;151.170;2023-03-19T04:11:29;7.13;;;5.50;;
16426;SDS011;8322;-33.900;151.170;2023-03-19T04:13:59;8.40;;;5.90;;
16426;SDS011;8322;-33.900;151.170;2023-03-19T04:16:31;10.30;;;6.25;;
16426;SDS011;8322;-33.900;151.170;2023-03-19T04:19:00;8.40;;;6.03;;
16426;SDS011;8322;-33.900;151.170;2023-03-19T04:21:29;6.88;;;5.70;;
16426;SDS011;8322;-33.900;151.170;2023-03-19T04:23:59;8.07;;;5.82;;
16426;SDS011;8322;-33.900;151.170;2023-03-19T04:26:29;7.57;;;5.90;;
16426;SDS011;8322;-33.900;151.170;2023-03-19T04:28:58;8.50;;;5.78;;
16426;SDS011;8322;-33.900;151.170;2023-03-19T04:31:27;10.07;;;6.25;;
16426;SDS011;8322;-33.900;151.170;2023-03-19T04:33:59;8.52;;;5.90;;
16426;SDS011;8322;-33.900;151.170;2023-03-19T04:36:28;8.80;;;5.68;;
16426;SDS011;8322;-33.900;151.170;2023-03-19T04:38:58;11.48;;;6.05;;
16426;SDS011;8322;-33.900;151.170;2023-03-19T04:41:27;8.90;;;6.10;;
16426;SDS011;8322;-33.900;151.170;2023-03-19T04:43:56;9.93;;;6.40;;
16426;SDS011;8322;-33.900;151.170;2023-03-19T04:46:26;10.85;;;6.45;;
16426;SDS011;8322;-33.900;151.170;2023-03-19T04:48:55;11.40;;;6.32;;
16426;SDS011;8322;-33.900;151.170;2023-03-19T04:51:27;10.98;;;5.82;;
16426;SDS011;8322;-33.900;151.170;2023-03-19T04:53:56;13.07;;;5.75;;
16426;SDS011;8322;-33.900;151.170;2023-03-19T04:56:26;10.10;;;6.18;;
16426;SDS011;8322;-33.900;151.170;2023-03-19T04:58:55;7.53;;;5.53;;
16426;SDS011;8322;-33.900;151.170;2023-03-19T05:01:24;7.70;;;4.55;;
16426;SDS011;8322;-33.900;151.170;2023-03-19T05:03:54;9.38;;;5.35;;
16426;SDS011;8322;-33.900;151.170;2023-03-19T05:06:23;9.55;;;5.35;;
16426;SDS011;8322;-33.900;151.170;2023-03-19T05:08:55;8.57;;;4.70;;
16426;SDS011;8322;-33.900;151.170;2023-03-19T05:11:25;10.02;;;5.13;;
16426;SDS011;8322;-33.900;151.170;2023-03-19T05:13:54;9.75;;;5.50;;
16426;SDS011;8322;-33.900;151.170;2023-03-19T05:16:24;10.38;;;5.38;;
16426;SDS011;8322;-33.900;151.170;2023-03-19T05:18:53;10.30;;;5.47;;
16426;SDS011;8322;-33.900;151.170;2023-03-19T05:21:22;11.02;;;5.57;;
16426;SDS011;8322;-33.900;151.170;2023-03-19T05:23:52;10.27;;;6.00;;
16426;SDS011;8322;-33.900;151.170;2023-03-19T05:26:24;6.57;;;5.72;;
16426;SDS011;8322;-33.900;151.170;2023-03-19T05:28:53;9.30;;;5.60;;
16426;SDS011;8322;-33.900;151.170;2023-03-19T05:31:22;8.75;;;4.85;;
16426;SDS011;8322;-33.900;151.170;2023-03-19T05:33:52;9.35;;;5.10;;
16426;SDS011;8322;-33.900;151.170;2023-03-19T05:36:22;7.95;;;4.70;;
16426;SDS011;8322;-33.900;151.170;2023-03-19T05:38:51;9.88;;;4.60;;
16426;SDS011;8322;-33.900;151.170;2023-03-19T05:41:20;7.43;;;4.53;;
16426;SDS011;8322;-33.900;151.170;2023-03-19T05:43:52;7.97;;;4.57;;
16426;SDS011;8322;-33.900;151.170;2023-03-19T05:46:21;8.10;;;4.30;;
16426;SDS011;8322;-33.900;151.170;2023-03-19T05:48:51;7.38;;;4.40;;
16426;SDS011;8322;-33.900;151.170;2023-03-19T05:51:20;8.48;;;4.68;;
16426;SDS011;8322;-33.900;151.170;2023-03-19T05:53:50;6.85;;;4.40;;
16426;SDS011;8322;-33.900;151.170;2023-03-19T05:56:19;8.07;;;4.97;;
16426;SDS011;8322;-33.900;151.170;2023-03-19T05:58:48;6.05;;;4.28;;
16426;SDS011;8322;-33.900;151.170;2023-03-19T06:01:20;7.25;;;4.88;;
16426;SDS011;8322;-33.900;151.170;2023-03-19T06:03:51;9.40;;;4.40;;
16426;SDS011;8322;-33.900;151.170;2023-03-19T06:06:21;7.53;;;4.20;;
16426;SDS011;8322;-33.900;151.170;2023-03-19T06:08:50;8.18;;;4.03;;
16426;SDS011;8322;-33.900;151.170;2023-03-19T06:11:20;6.50;;;3.70;;
16426;SDS011;8322;-33.900;151.170;2023-03-19T06:13:49;6.47;;;3.97;;
16426;SDS011;8322;-33.900;151.170;2023-03-19T06:16:20;6.38;;;3.70;;
16426;SDS011;8322;-33.900;151.170;2023-03-19T06:18:50;6.45;;;4.03;;
16426;SDS011;8322;-33.900;151.170;2023-03-19T06:21:19;9.38;;;4.00;;
16426;SDS011;8322;-33.900;151.170;2023-03-19T06:23:50;6.55;;;4.00;;
16426;SDS011;8322;-33.900;151.170;2023-03-19T06:26:20;7.57;;;3.58;;
16426;SDS011;8322;-33.900;151.170;2023-03-19T06:28:49;8.90;;;3.72;;
16426;SDS011;8322;-33.900;151.170;2023-03-19T06:31:21;6.63;;;3.60;;
16426;SDS011;8322;-33.900;151.170;2023-03-19T06:33:53;10.13;;;4.00;;
16426;SDS011;8322;-33.900;151.170;2023-03-19T06:36:23;6.63;;;3.70;;
16426;SDS011;8322;-33.900;151.170;2023-03-19T06:38:52;9.13;;;4.00;;
16426;SDS011;8322;-33.900;151.170;2023-03-19T06:41:22;10.07;;;3.30;;
16426;SDS011;8322;-33.900;151.170;2023-03-19T06:43:51;8.20;;;3.55;;
16426;SDS011;8322;-33.900;151.170;2023-03-19T06:46:23;6.10;;;3.70;;
16426;SDS011;8322;-33.900;151.170;2023-03-19T06:48:52;8.43;;;3.65;;
16426;SDS011;8322;-33.900;151.170;2023-03-19T06:51:21;7.18;;;3.40;;
16426;SDS011;8322;-33.900;151.170;2023-03-19T06:53:52;6.95;;;3.70;;
16426;SDS011;8322;-33.900;151.170;2023-03-19T06:56:22;5.95;;;3.95;;
16426;SDS011;8322;-33.900;151.170;2023-03-19T06:58:51;10.50;;;4.38;;
16426;SDS011;8322;-33.900;151.170;2023-03-19T07:01:22;10.63;;;4.47;;
16426;SDS011;8322;-33.900;151.170;2023-03-19T07:03:52;9.23;;;5.63;;
16426;SDS011;8322;-33.900;151.170;2023-03-19T07:06:22;9.10;;;3.80;;
16426;SDS011;8322;-33.900;151.170;2023-03-19T07:08:51;7.45;;;3.10;;
16426;SDS011;8322;-33.900;151.170;2023-03-19T07:11:21;5.53;;;3.30;;
16426;SDS011;8322;-33.900;151.170;2023-03-19T07:13:50;7.55;;;3.50;;
16426;SDS011;8322;-33.900;151.170;2023-03-19T07:16:20;6.07;;;3.50;;
16426;SDS011;8322;-33.900;151.170;2023-03-19T07:18:51;8.20;;;3.13;;
16426;SDS011;8322;-33.900;151.170;2023-03-19T07:21:21;7.72;;;3.63;;
16426;SDS011;8322;-33.900;151.170;2023-03-19T07:23:50;7.10;;;3.42;;
16426;SDS011;8322;-33.900;151.170;2023-03-19T07:26:20;7.53;;;3.72;;
16426;SDS011;8322;-33.900;151.170;2023-03-19T07:28:49;8.32;;;3.58;;
16426;SDS011;8322;-33.900;151.170;2023-03-19T07:31:19;8.55;;;3.42;;
16426;SDS011;8322;-33.900;151.170;2023-03-19T07:33:48;10.93;;;4.30;;
16426;SDS011;8322;-33.900;151.170;2023-03-19T07:36:20;8.38;;;4.05;;
16426;SDS011;8322;-33.900;151.170;2023-03-19T07:38:49;11.88;;;4.10;;
16426;SDS011;8322;-33.900;151.170;2023-03-19T07:41:19;8.32;;;3.70;;
16426;SDS011;8322;-33.900;151.170;2023-03-19T07:43:48;7.25;;;4.05;;
16426;SDS011;8322;-33.900;151.170;2023-03-19T07:46:22;11.93;;;4.40;;
16426;SDS011;8322;-33.900;151.170;2023-03-19T07:48:51;10.15;;;4.35;;
16426;SDS011;8322;-33.900;151.170;2023-03-19T07:51:25;13.85;;;4.80;;
16426;SDS011;8322;-33.900;151.170;2023-03-19T07:53:57;12.23;;;4.40;;
16426;SDS011;8322;-33.900;151.170;2023-03-19T07:56:27;12.32;;;4.25;;
16426;SDS011;8322;-33.900;151.170;2023-03-19T07:58:56;11.30;;;4.40;;
16426;SDS011;8322;-33.900;151.170;2023-03-19T08:01:26;11.65;;;4.60;;
16426;SDS011;8322;-33.900;151.170;2023-03-19T08:03:56;11.32;;;4.72;;
16426;SDS011;8322;-33.900;151.170;2023-03-19T08:06:27;12.15;;;4.65;;
16426;SDS011;8322;-33.900;151.170;2023-03-19T08:08:56;13.30;;;5.35;;
16426;SDS011;8322;-33.900;151.170;2023-03-19T08:11:26;8.80;;;4.60;;
16426;SDS011;8322;-33.900;151.170;2023-03-19T08:13:56;11.88;;;5.22;;
16426;SDS011;8322;-33.900;151.170;2023-03-19T08:16:26;12.10;;;5.20;;
16426;SDS011;8322;-33.900;151.170;2023-03-19T08:18:55;12.90;;;8.40;;
16426;SDS011;8322;-33.900;151.170;2023-03-19T08:21:25;15.23;;;10.43;;
16426;SDS011;8322;-33.900;151.170;2023-03-19T08:23:56;16.70;;;10.82;;
16426;SDS011;8322;-33.900;151.170;2023-03-19T08:26:25;16.23;;;10.60;;
16426;SDS011;8322;-33.900;151.170;2023-03-19T08:28:55;18.02;;;12.23;;
16426;SDS011;8322;-33.900;151.170;2023-03-19T08:31:24;17.35;;;12.65;;
16426;SDS011;8322;-33.900;151.170;2023-03-19T08:33:54;17.80;;;12.90;;
16426;SDS011;8322;-33.900;151.170;2023-03-19T08:36:25;19.67;;;14.70;;
16426;SDS011;8322;-33.900;151.170;2023-03-19T08:38:56;20.40;;;15.55;;
16426;SDS011;8322;-33.900;151.170;2023-03-19T08:41:26;23.90;;;16.92;;
16426;SDS011;8322;-33.900;151.170;2023-03-19T08:43:55;27.60;;;19.83;;
16426;SDS011;8322;-33.900;151.170;2023-03-19T08:46:25;27.65;;;19.45;;
16426;SDS011;8322;-33.900;151.170;2023-03-19T08:48:55;29.52;;;20.15;;
16426;SDS011;8322;-33.900;151.170;2023-03-19T08:51:24;30.50;;;20.27;;
16426;SDS011;8322;-33.900;151.170;2023-03-19T08:53:59;30.10;;;19.60;;
16426;SDS011;8322;-33.900;151.170;2023-03-19T08:56:28;27.05;;;17.98;;
16426;SDS011;8322;-33.900;151.170;2023-03-19T08:58:58;29.20;;;17.58;;
16426;SDS011;8322;-33.900;151.170;2023-03-19T09:01:27;28.00;;;18.38;;
16426;SDS011;8322;-33.900;151.170;2023-03-19T09:03:57;28.80;;;18.75;;
16426;SDS011;8322;-33.900;151.170;2023-03-19T09:06:27;27.45;;;18.38;;
16426;SDS011;8322;-33.900;151.170;2023-03-19T09:08:58;28.35;;;18.05;;
16426;SDS011;8322;-33.900;151.170;2023-03-19T09:11:27;26.25;;;17.00;;
16426;SDS011;8322;-33.900;151.170;2023-03-19T09:13:57;30.08;;;19.17;;
16426;SDS011;8322;-33.900;151.170;2023-03-19T09:16:26;29.92;;;19.08;;
16426;SDS011;8322;-33.900;151.170;2023-03-19T09:18:56;27.63;;;18.15;;
16426;SDS011;8322;-33.900;151.170;2023-03-19T09:21:25;31.80;;;18.33;;
16426;SDS011;8322;-33.900;151.170;2023-03-19T09:23:55;28.10;;;17.30;;
16426;SDS011;8322;-33.900;151.170;2023-03-19T09:26:26;35.05;;;15.63;;
16426;SDS011;8322;-33.900;151.170;2023-03-19T09:28:56;30.15;;;14.57;;
16426;SDS011;8322;-33.900;151.170;2023-03-19T09:31:25;30.80;;;13.45;;
16426;SDS011;8322;-33.900;151.170;2023-03-19T09:33:55;31.65;;;13.57;;
16426;SDS011;8322;-33.900;151.170;2023-03-19T09:36:24;32.63;;;12.32;;
16426;SDS011;8322;-33.900;151.170;2023-03-19T09:38:54;34.08;;;11.45;;
16426;SDS011;8322;-33.900;151.170;2023-03-19T09:41:28;34.25;;;11.68;;
16426;SDS011;8322;-33.900;151.170;2023-03-19T09:44:00;31.23;;;10.88;;
16426;SDS011;8322;-33.900;151.170;2023-03-19T09:46:32;38.88;;;11.60;;
16426;SDS011;8322;-33.900;151.170;2023-03-19T09:49:06;30.30;;;10.15;;
16426;SDS011;8322;-33.900;151.170;2023-03-19T09:51:41;31.50;;;10.32;;
16426;SDS011;8322;-33.900;151.170;2023-03-19T09:54:15;33.13;;;10.38;;
16426;SDS011;8322;-33.900;151.170;2023-03-19T09:56:50;31.05;;;9.52;;
16426;SDS011;8322;-33.900;151.170;2023-03-19T09:59:21;30.05;;;9.48;;
16426;SDS011;8322;-33.900;151.170;2023-03-19T10:01:52;37.47;;;10.32;;
16426;SDS011;8322;-33.900;151.170;2023-03-19T10:04:38;36.80;;;10.77;;
16426;SDS011;8322;-33.900;151.170;2023-03-19T10:09:54;33.38;;;9.70;;
16426;SDS011;8322;-33.900;151.170;2023-03-19T10:12:36;35.85;;;9.48;;
16426;SDS011;8322;-33.900;151.170;2023-03-19T10:15:18;39.30;;;9.50;;
16426;SDS011;8322;-33.900;151.170;2023-03-19T10:17:52;37.35;;;9.05;;
16426;SDS011;8322;-33.900;151.170;2023-03-19T10:20:27;33.80;;;9.27;;
16426;SDS011;8322;-33.900;151.170;2023-03-19T10:22:59;31.42;;;8.38;;
16426;SDS011;8322;-33.900;151.170;2023-03-19T10:25:31;34.28;;;8.68;;
16426;SDS011;8322;-33.900;151.170;2023-03-19T10:28:06;35.67;;;8.48;;
16426;SDS011;8322;-33.900;151.170;2023-03-19T10:30:39;37.67;;;8.43;;
16426;SDS011;8322;-33.900;151.170;2023-03-19T10:33:13;33.60;;;8.45;;
16426;SDS011;8322;-33.900;151.170;2023-03-19T10:35:44;30.88;;;8.13;;
16426;SDS011;8322;-33.900;151.170;2023-03-19T10:38:16;33.60;;;8.07;;
16426;SDS011;8322;-33.900;151.170;2023-03-19T10:40:50;36.72;;;8.63;;
16426;SDS011;8322;-33.900;151.170;2023-03-19T10:43:26;37.53;;;9.02;;
16426;SDS011;8322;-33.900;151.170;2023-03-19T10:45:56;36.60;;;8.00;;
16426;SDS011;8322;-33.900;151.170;2023-03-19T10:48:25;38.75;;;9.25;;
16426;SDS011;8322;-33.900;151.170;2023-03-19T10:50:56;35.50;;;8.80;;
16426;SDS011;8322;-33.900;151.170;2023-03-19T10:53:30;39.22;;;9.57;;
16426;SDS011;8322;-33.900;151.170;2023-03-19T10:56:00;35.70;;;9.85;;
16426;SDS011;8322;-33.900;151.170;2023-03-19T10:58:32;40.67;;;10.02;;
16426;SDS011;8322;-33.900;151.170;2023-03-19T11:01:03;41.85;;;9.63;;
16426;SDS011;8322;-33.900;151.170;2023-03-19T11:03:34;37.88;;;9.48;;
16426;SDS011;8322;-33.900;151.170;2023-03-19T11:06:08;35.50;;;9.35;;
16426;SDS011;8322;-33.900;151.170;2023-03-19T11:08:48;36.40;;;9.10;;
16426;SDS011;8322;-33.900;151.170;2023-03-19T11:11:22;38.20;;;9.48;;
16426;SDS011;8322;-33.900;151.170;2023-03-19T11:13:54;32.03;;;9.40;;
16426;SDS011;8322;-33.900;151.170;2023-03-19T11:16:24;35.17;;;9.35;;
16426;SDS011;8322;-33.900;151.170;2023-03-19T11:18:53;45.78;;;10.23;;
16426;SDS011;8322;-33.900;151.170;2023-03-19T11:21:23;31.92;;;9.77;;
16426;SDS011;8322;-33.900;151.170;2023-03-19T11:23:58;37.97;;;10.52;;
16426;SDS011;8322;-33.900;151.170;2023-03-19T11:26:28;47.67;;;9.60;;
16426;SDS011;8322;-33.900;151.170;2023-03-19T11:29:02;39.20;;;9.38;;
16426;SDS011;8322;-33.900;151.170;2023-03-19T11:31:33;42.40;;;10.07;;
16426;SDS011;8322;-33.900;151.170;2023-03-19T11:34:07;38.92;;;9.82;;
16426;SDS011;8322;-33.900;151.170;2023-03-19T11:36:43;37.95;;;10.10;;
16426;SDS011;8322;-33.900;151.170;2023-03-19T11:39:20;39.38;;;9.88;;
16426;SDS011;8322;-33.900;151.170;2023-03-19T11:41:57;32.85;;;9.50;;
16426;SDS011;8322;-33.900;151.170;2023-03-19T11:44:30;29.38;;;9.23;;
16426;SDS011;8322;-33.900;151.170;2023-03-19T11:47:03;35.63;;;9.05;;
16426;SDS011;8322;-33.900;151.170;2023-03-19T11:49:41;33.60;;;9.35;;
16426;SDS011;8322;-33.900;151.170;2023-03-19T11:52:15;32.30;;;9.02;;
16426;SDS011;8322;-33.900;151.170;2023-03-19T11:54:50;34.63;;;9.57;;
16426;SDS011;8322;-33.900;151.170;2023-03-19T11:57:26;41.08;;;10.10;;
16426;SDS011;8322;-33.900;151.170;2023-03-19T12:00:04;36.28;;;9.02;;
16426;SDS011;8322;-33.900;151.170;2023-03-19T12:02:47;35.42;;;9.40;;
16426;SDS011;8322;-33.900;151.170;2023-03-19T12:05:22;36.65;;;9.40;;
16426;SDS011;8322;-33.900;151.170;2023-03-19T12:07:57;32.38;;;8.45;;
16426;SDS011;8322;-33.900;151.170;2023-03-19T12:10:33;36.13;;;10.00;;
16426;SDS011;8322;-33.900;151.170;2023-03-19T12:13:08;30.13;;;8.93;;
16426;SDS011;8322;-33.900;151.170;2023-03-19T12:15:41;29.65;;;9.32;;
16426;SDS011;8322;-33.900;151.170;2023-03-19T12:18:17;30.83;;;9.05;;
16426;SDS011;8322;-33.900;151.170;2023-03-19T12:20:52;44.92;;;10.25;;
16426;SDS011;8322;-33.900;151.170;2023-03-19T12:23:28;34.45;;;9.93;;
16426;SDS011;8322;-33.900;151.170;2023-03-19T12:26:01;36.05;;;9.52;;
16426;SDS011;8322;-33.900;151.170;2023-03-19T12:28:32;30.23;;;8.52;;
16426;SDS011;8322;-33.900;151.170;2023-03-19T12:31:21;31.58;;;8.70;;
16426;SDS011;8322;-33.900;151.170;2023-03-19T12:33:55;32.15;;;8.68;;
16426;SDS011;8322;-33.900;151.170;2023-03-19T12:36:28;38.88;;;9.23;;
16426;SDS011;8322;-33.900;151.170;2023-03-19T12:38:58;32.60;;;9.18;;
16426;SDS011;8322;-33.900;151.170;2023-03-19T12:41:30;40.22;;;10.13;;
16426;SDS011;8322;-33.900;151.170;2023-03-19T12:44:02;33.60;;;8.75;;
16426;SDS011;8322;-33.900;151.170;2023-03-19T12:46:35;34.17;;;9.15;;
16426;SDS011;8322;-33.900;151.170;2023-03-19T12:49:05;36.20;;;9.43;;
16426;SDS011;8322;-33.900;151.170;2023-03-19T12:51:37;32.63;;;8.52;;
16426;SDS011;8322;-33.900;151.170;2023-03-19T12:54:11;31.75;;;9.00;;
16426;SDS011;8322;-33.900;151.170;2023-03-19T12:56:43;35.88;;;8.77;;
16426;SDS011;8322;-33.900;151.170;2023-03-19T12:59:25;29.98;;;8.75;;
16426;SDS011;8322;-33.900;151.170;2023-03-19T13:02:00;35.65;;;8.45;;
16426;SDS011;8322;-33.900;151.170;2023-03-19T13:04:32;36.45;;;8.95;;
16426;SDS011;8322;-33.900;151.170;2023-03-19T13:07:04;29.38;;;8.32;;
16426;SDS011;8322;-33.900;151.170;2023-03-19T13:09:35;35.40;;;8.82;;
16426;SDS011;8322;-33.900;151.170;2023-03-19T13:12:06;27.80;;;8.85;;
16426;SDS011;8322;-33.900;151.170;2023-03-19T13:14:41;36.88;;;9.07;;
16426;SDS011;8322;-33.900;151.170;2023-03-19T13:17:18;33.58;;;9.00;;
16426;SDS011;8322;-33.900;151.170;2023-03-19T13:19:50;26.42;;;8.48;;
16426;SDS011;8322;-33.900;151.170;2023-03-19T13:22:21;36.72;;;9.88;;
16426;SDS011;8322;-33.900;151.170;2023-03-19T13:24:51;35.60;;;9.40;;
16426;SDS011;8322;-33.900;151.170;2023-03-19T13:27:22;26.10;;;8.38;;
16426;SDS011;8322;-33.900;151.170;2023-03-19T13:29:58;30.15;;;9.38;;
16426;SDS011;8322;-33.900;151.170;2023-03-19T13:32:33;30.50;;;9.13;;
16426;SDS011;8322;-33.900;151.170;2023-03-19T13:35:17;28.92;;;8.50;;
16426;SDS011;8322;-33.900;151.170;2023-03-19T13:37:54;38.47;;;9.25;;
16426;SDS011;8322;-33.900;151.170;2023-03-19T13:43:22;30.67;;;8.30;;
16426;SDS011;8322;-33.900;151.170;2023-03-19T13:45:52;31.00;;;8.45;;
16426;SDS011;8322;-33.900;151.170;2023-03-19T13:48:32;33.25;;;8.57;;
16426;SDS011;8322;-33.900;151.170;2023-03-19T13:51:04;37.67;;;9.27;;
16426;SDS011;8322;-33.900;151.170;2023-03-19T13:53:34;31.08;;;8.75;;
16426;SDS011;8322;-33.900;151.170;2023-03-19T13:56:05;35.05;;;9.40;;
16426;SDS011;8322;-33.900;151.170;2023-03-19T13:58:44;33.95;;;8.85;;
16426;SDS011;8322;-33.900;151.170;2023-03-19T14:04:06;31.63;;;9.02;;
16426;SDS011;8322;-33.900;151.170;2023-03-19T14:06:44;28.83;;;8.80;;
16426;SDS011;8322;-33.900;151.170;2023-03-19T14:12:24;34.85;;;8.30;;
16426;SDS011;8322;-33.900;151.170;2023-03-19T14:14:59;29.90;;;8.05;;
16426;SDS011;8322;-33.900;151.170;2023-03-19T14:17:30;36.67;;;8.52;;
16426;SDS011;8322;-33.900;151.170;2023-03-19T14:20:05;36.53;;;8.18;;
16426;SDS011;8322;-33.900;151.170;2023-03-19T14:22:55;34.28;;;8.23;;
16426;SDS011;8322;-33.900;151.170;2023-03-19T14:28:14;30.00;;;8.70;;
16426;SDS011;8322;-33.900;151.170;2023-03-19T14:30:45;29.60;;;7.68;;
16426;SDS011;8322;-33.900;151.170;2023-03-19T14:33:16;36.47;;;8.57;;
16426;SDS011;8322;-33.900;151.170;2023-03-19T14:35:48;30.50;;;7.80;;
16426;SDS011;8322;-33.900;151.170;2023-03-19T14:38:22;27.85;;;7.05;;
16426;SDS011;8322;-33.900;151.170;2023-03-19T14:40:53;25.67;;;8.07;;
16426;SDS011;8322;-33.900;151.170;2023-03-19T14:43:24;28.70;;;7.90;;
16426;SDS011;8322;-33.900;151.170;2023-03-19T14:46:01;31.23;;;7.72;;
16426;SDS011;8322;-33.900;151.170;2023-03-19T14:51:20;26.42;;;7.70;;